Time;durP1;ratioP1;P1;durP2;ratioP2;P2;SDS_P1;SDS_P2;PMS_P1;PMS_P2;Temp;Humidity;BMP_temperature;BMP_pressure;BME280_temperature;BME280_humidity;BME280_pressure;Samples;Min_cycle;Max_cycle;Signal;HPM_P1;HPM_P2
2022/07/18 00:00:19;;;;;;;2.30;2.10;;;17.00;99.90;;;;;;4879805;29;20192;-57
2022/07/18 00:02:47;;;;;;;2.43;2.27;;;16.90;99.90;;;;;;4879416;29;20191;-57
2022/07/18 00:05:15;;;;;;;2.33;2.13;;;16.90;99.90;;;;;;4878540;29;20231;-57
2022/07/18 00:07:44;;;;;;;2.30;2.10;;;16.90;99.90;;;;;;4879523;29;20561;-57
2022/07/18 00:10:12;;;;;;;3.30;2.30;;;16.80;99.90;;;;;;4879447;29;20290;-57
2022/07/18 00:12:41;;;;;;;2.83;2.30;;;16.70;99.90;;;;;;4878332;29;20887;-57
2022/07/18 00:15:10;;;;;;;4.43;2.40;;;16.70;99.90;;;;;;4879453;29;20646;-57
2022/07/18 00:17:40;;;;;;;2.30;2.20;;;16.60;99.90;;;;;;4878577;29;20688;-57
2022/07/18 00:20:12;;;;;;;3.30;2.40;;;16.60;99.90;;;;;;4878949;29;20199;-57
2022/07/18 00:22:40;;;;;;;2.90;2.40;;;16.60;99.90;;;;;;4878606;29;20835;-57
2022/07/18 00:25:09;;;;;;;2.57;2.37;;;16.50;99.90;;;;;;4878760;29;20209;-57
2022/07/18 00:27:37;;;;;;;2.37;2.27;;;16.40;99.90;;;;;;4878034;29;20277;-57
2022/07/18 00:30:08;;;;;;;2.50;2.30;;;16.40;99.90;;;;;;4878055;29;20203;-57
2022/07/18 00:32:36;;;;;;;2.20;2.10;;;16.30;99.90;;;;;;4879232;29;20679;-57
2022/07/18 00:35:07;;;;;;;2.30;2.20;;;16.30;99.90;;;;;;4878109;29;20276;-57
2022/07/18 00:37:36;;;;;;;3.67;2.50;;;16.20;99.90;;;;;;4879183;29;20313;-57
2022/07/18 00:40:05;;;;;;;2.93;2.53;;;16.10;99.90;;;;;;4878099;29;20205;-57
2022/07/18 00:42:34;;;;;;;2.93;2.70;;;16.00;99.90;;;;;;4879421;29;20199;-58
2022/07/18 00:45:03;;;;;;;6.83;2.73;;;16.00;99.90;;;;;;4879263;29;20247;-57
2022/07/18 00:47:31;;;;;;;2.70;2.50;;;16.00;99.90;;;;;;4879104;29;20199;-58
2022/07/18 00:50:00;;;;;;;3.30;2.90;;;16.00;99.90;;;;;;4879385;29;20686;-58
2022/07/18 00:52:29;;;;;;;2.73;2.57;;;15.90;99.90;;;;;;4879182;29;20226;-57
2022/07/18 00:54:57;;;;;;;2.67;2.47;;;15.90;99.90;;;;;;4879238;29;20206;-58
2022/07/18 00:57:27;;;;;;;2.60;2.37;;;15.90;99.90;;;;;;4880738;29;20242;-57
2022/07/18 01:02:42;;;;;;;4.80;2.60;;;15.90;99.90;;;;;;4887709;29;20283;-57
2022/07/18 01:05:10;;;;;;;5.00;2.70;;;15.80;99.90;;;;;;4882869;29;20211;-57
2022/07/18 01:07:41;;;;;;;4.50;2.87;;;15.80;99.90;;;;;;4882597;29;20226;-57
2022/07/18 01:10:10;;;;;;;3.13;2.80;;;15.80;99.90;;;;;;4883739;29;20270;-57
2022/07/18 01:12:38;;;;;;;3.53;2.60;;;15.80;99.90;;;;;;4882602;29;20730;-57
2022/07/18 01:15:08;;;;;;;2.43;2.33;;;15.80;99.90;;;;;;4881469;29;20294;-57
2022/07/18 01:17:36;;;;;;;3.70;2.63;;;15.80;99.90;;;;;;4882529;29;20215;-57
2022/07/18 01:20:06;;;;;;;5.90;2.60;;;15.80;99.90;;;;;;4882565;29;20282;-57
2022/07/18 01:22:36;;;;;;;2.60;2.50;;;15.70;99.90;;;;;;4881147;29;20321;-56
2022/07/18 01:25:05;;;;;;;4.97;2.97;;;15.70;99.90;;;;;;4882569;29;20290;-58
2022/07/18 01:27:36;;;;;;;4.60;2.53;;;15.70;99.90;;;;;;4882537;29;20243;-58
2022/07/18 01:30:06;;;;;;;2.60;2.40;;;15.60;99.90;;;;;;4881298;29;20594;-57
2022/07/18 01:32:34;;;;;;;5.17;3.07;;;15.60;99.90;;;;;;4882411;29;20220;-58
2022/07/18 01:35:04;;;;;;;4.23;2.27;;;15.60;99.90;;;;;;4882431;29;20245;-58
2022/07/18 01:37:32;;;;;;;4.50;2.97;;;15.60;99.90;;;;;;4882333;29;20219;-58
2022/07/18 01:40:07;;;;;;;2.90;2.70;;;15.60;99.90;;;;;;4882214;29;20198;-57
2022/07/18 01:42:35;;;;;;;4.40;2.63;;;15.50;99.90;;;;;;4882271;29;20281;-57
2022/07/18 01:45:04;;;;;;;3.00;2.80;;;15.50;99.90;;;;;;4882248;29;20241;-57
2022/07/18 01:47:33;;;;;;;2.77;2.43;;;15.50;99.90;;;;;;4882449;29;20673;-57
2022/07/18 01:50:01;;;;;;;3.07;2.60;;;15.50;99.90;;;;;;4882163;29;20319;-57
2022/07/18 01:52:30;;;;;;;3.03;2.37;;;15.40;99.90;;;;;;4883653;29;20234;-57
2022/07/18 01:54:58;;;;;;;2.47;2.27;;;15.40;99.90;;;;;;4900826;29;20276;-57
2022/07/18 01:57:28;;;;;;;4.47;2.40;;;15.30;99.90;;;;;;4900749;29;20301;-57
2022/07/18 01:59:56;;;;;;;4.63;2.63;;;15.30;99.90;;;;;;4900849;29;20234;-57
2022/07/18 02:02:25;;;;;;;3.00;2.70;;;15.20;99.90;;;;;;4900781;29;20202;-57
2022/07/18 02:05:02;;;;;;;4.23;2.80;;;15.20;99.90;;;;;;4899228;29;20591;-57
2022/07/18 02:07:34;;;;;;;2.60;2.40;;;15.20;99.90;;;;;;4870015;29;20195;-57
2022/07/18 02:10:05;;;;;;;3.10;2.90;;;15.10;99.90;;;;;;4881700;29;20314;-57
2022/07/18 02:12:35;;;;;;;3.17;2.50;;;15.10;99.90;;;;;;4881547;29;20675;-57
2022/07/18 02:15:05;;;;;;;4.27;2.60;;;15.10;99.90;;;;;;4881766;29;20207;-56
2022/07/18 02:17:34;;;;;;;3.23;2.80;;;15.00;99.90;;;;;;4880668;29;20218;-57
2022/07/18 02:20:05;;;;;;;4.00;2.80;;;15.00;99.90;;;;;;4881639;29;20544;-57
2022/07/18 02:22:33;;;;;;;3.43;2.70;;;14.90;99.90;;;;;;4881392;29;20330;-57
2022/07/18 02:25:02;;;;;;;3.00;2.83;;;14.90;99.90;;;;;;4881524;29;20701;-57
2022/07/18 02:27:30;;;;;;;3.00;2.80;;;14.90;99.90;;;;;;4881551;29;20187;-57
2022/07/18 02:30:00;;;;;;;3.07;2.70;;;14.80;99.90;;;;;;4881315;29;20206;-57
2022/07/18 02:32:28;;;;;;;3.00;2.80;;;14.80;99.90;;;;;;4881039;29;20625;-57
2022/07/18 02:35:17;;;;;;;3.77;2.63;;;14.70;99.90;;;;;;4879666;29;20231;-58
2022/07/18 02:37:47;;;;;;;4.10;2.90;;;14.70;99.90;;;;;;4891358;29;20560;-57
2022/07/18 02:40:15;;;;;;;5.47;2.97;;;14.60;99.90;;;;;;4879674;29;20728;-57
2022/07/18 02:42:44;;;;;;;2.97;2.77;;;14.60;99.90;;;;;;4881061;29;20285;-58
2022/07/18 02:45:14;;;;;;;3.10;2.83;;;14.60;99.90;;;;;;4881254;29;20191;-58
2022/07/18 02:47:42;;;;;;;4.90;3.40;;;14.50;99.90;;;;;;4880922;29;20263;-57
2022/07/18 02:50:12;;;;;;;4.97;3.13;;;14.50;99.90;;;;;;4880910;29;20286;-57
2022/07/18 02:52:41;;;;;;;3.50;3.20;;;14.40;99.90;;;;;;4881231;29;20211;-57
2022/07/18 02:55:10;;;;;;;3.30;3.00;;;14.40;99.90;;;;;;4881210;29;20702;-57
2022/07/18 02:57:39;;;;;;;6.93;3.03;;;14.30;99.90;;;;;;4880981;29;20715;-58
2022/07/18 03:00:10;;;;;;;5.57;3.20;;;14.30;99.90;;;;;;4881210;29;20254;-57
2022/07/18 03:02:40;;;;;;;3.43;3.13;;;14.30;99.90;;;;;;4879696;29;20191;-57
2022/07/18 03:05:09;;;;;;;3.13;2.93;;;14.20;99.90;;;;;;4879596;29;20293;-58
2022/07/18 03:07:37;;;;;;;3.43;3.00;;;14.20;99.90;;;;;;4879640;29;20205;-57
2022/07/18 03:10:07;;;;;;;3.43;3.13;;;14.20;99.90;;;;;;4880736;29;20605;-58
2022/07/18 03:12:36;;;;;;;4.10;3.43;;;14.20;99.90;;;;;;4880643;29;20199;-56
2022/07/18 03:15:05;;;;;;;3.40;3.10;;;14.20;99.90;;;;;;4880751;29;20742;-58
2022/07/18 03:17:33;;;;;;;3.90;3.00;;;14.10;99.90;;;;;;4880342;29;20594;-57
2022/07/18 03:20:04;;;;;;;3.70;3.20;;;14.10;99.90;;;;;;4880051;29;20644;-58
2022/07/18 03:22:33;;;;;;;3.40;2.90;;;14.10;99.90;;;;;;4879043;29;20282;-57
2022/07/18 03:25:02;;;;;;;3.67;3.03;;;14.10;99.90;;;;;;4879142;29;20293;-57
2022/07/18 03:27:30;;;;;;;3.20;2.80;;;14.00;99.90;;;;;;4880326;29;20203;-57
2022/07/18 03:29:58;;;;;;;3.73;3.43;;;14.10;99.90;;;;;;4880038;29;20203;-57
2022/07/18 03:32:27;;;;;;;3.87;3.50;;;14.00;99.90;;;;;;4880301;29;20207;-58
2022/07/18 03:34:55;;;;;;;4.03;3.33;;;14.00;99.90;;;;;;4880123;29;20333;-57
2022/07/18 03:37:25;;;;;;;3.57;2.60;;;14.00;99.90;;;;;;4880509;29;20287;-57
2022/07/18 03:39:53;;;;;;;4.17;3.50;;;14.00;99.90;;;;;;4880254;29;20215;-57
2022/07/18 03:42:22;;;;;;;3.30;3.00;;;14.00;99.90;;;;;;4878917;29;20230;-57
2022/07/18 03:44:50;;;;;;;3.57;3.23;;;14.00;99.90;;;;;;4880384;29;20558;-57
2022/07/18 03:47:19;;;;;;;3.87;3.57;;;14.00;99.90;;;;;;4880101;29;20201;-58
2022/07/18 03:49:47;;;;;;;4.20;3.27;;;14.00;99.90;;;;;;4880079;29;20203;-57
2022/07/18 03:52:17;;;;;;;5.23;3.33;;;14.00;99.90;;;;;;4880053;29;20667;-57
2022/07/18 03:54:48;;;;;;;3.50;3.20;;;13.90;99.90;;;;;;4888329;29;20234;-57
2022/07/18 03:57:16;;;;;;;3.83;3.50;;;13.90;99.90;;;;;;4879973;29;20675;-58
2022/07/18 03:59:44;;;;;;;4.83;3.70;;;13.90;99.90;;;;;;4880026;29;20254;-57
2022/07/18 04:02:13;;;;;;;4.80;4.10;;;13.90;99.90;;;;;;4879551;29;20563;-58
2022/07/18 04:05:00;;;;;;;8.03;3.60;;;14.00;99.90;;;;;;4878440;29;20195;-56
2022/07/18 04:07:29;;;;;;;3.77;3.40;;;14.00;99.90;;;;;;4863124;29;20229;-57
2022/07/18 04:09:58;;;;;;;5.03;3.50;;;14.00;99.90;;;;;;4880045;29;20644;-58
2022/07/18 04:12:27;;;;;;;4.63;3.57;;;14.00;99.90;;;;;;4879897;29;20202;-58
2022/07/18 04:14:55;;;;;;;6.37;3.67;;;14.00;99.90;;;;;;4879636;29;20201;-58
2022/07/18 04:17:23;;;;;;;3.93;3.63;;;14.10;99.90;;;;;;4865878;29;20294;-57
2022/07/18 04:19:53;;;;;;;5.93;3.50;;;14.10;99.90;;;;;;4861476;29;20302;-57
2022/07/18 04:22:21;;;;;;;3.83;3.33;;;14.20;99.90;;;;;;4860782;29;20348;-57
2022/07/18 04:24:49;;;;;;;7.50;3.47;;;14.20;99.90;;;;;;4861021;29;20274;-55
2022/07/18 04:27:22;;;;;;;4.33;4.00;;;14.30;99.90;;;;;;4870921;29;20203;-57
2022/07/18 04:29:53;;;;;;;6.83;4.20;;;14.30;99.90;;;;;;4879460;29;20663;-57
2022/07/18 04:32:23;;;;;;;4.77;3.83;;;14.40;99.90;;;;;;4877806;29;20286;-57
2022/07/18 04:34:52;;;;;;;5.47;3.87;;;14.50;99.90;;;;;;4879997;29;20207;-57
2022/07/18 04:37:22;;;;;;;4.93;4.00;;;14.50;99.90;;;;;;4878304;29;20234;-58
2022/07/18 04:39:51;;;;;;;6.77;3.93;;;14.60;99.90;;;;;;4878205;29;20314;-57
2022/07/18 04:42:19;;;;;;;4.60;4.10;;;14.70;99.90;;;;;;4879668;29;20281;-57
2022/07/18 04:44:49;;;;;;;6.90;4.03;;;14.80;99.90;;;;;;4877818;29;20652;-58
2022/07/18 04:47:19;;;;;;;5.70;3.70;;;14.80;99.90;;;;;;4879504;29;20203;-57
2022/07/18 04:49:53;;;;;;;4.30;3.90;;;14.90;99.90;;;;;;4879422;29;20651;-57
2022/07/18 04:52:22;;;;;;;5.37;3.80;;;15.10;99.90;;;;;;4879644;29;20210;-57
2022/07/18 04:54:50;;;;;;;3.83;3.60;;;15.20;99.90;;;;;;4879486;29;20238;-57
2022/07/18 04:57:19;;;;;;;5.53;3.40;;;15.30;99.90;;;;;;4879187;29;20596;-57
2022/07/18 04:59:49;;;;;;;8.40;3.60;;;15.40;99.90;;;;;;4879543;29;20250;-57
2022/07/18 05:02:17;;;;;;;4.63;3.63;;;15.50;99.90;;;;;;4879344;29;20214;-57
2022/07/18 05:04:46;;;;;;;4.97;3.53;;;15.70;99.90;;;;;;4878040;29;20672;-58
2022/07/18 05:07:51;;;;;;;4.10;3.77;;;15.90;99.90;;;;;;4879326;29;20195;-58
2022/07/18 05:10:22;;;;;;;8.23;3.40;;;16.00;99.90;;;;;;4879140;29;20273;-58
2022/07/18 05:12:53;;;;;;;8.20;3.90;;;16.20;99.90;;;;;;4879507;29;20231;-57
2022/07/18 05:15:24;;;;;;;5.10;3.77;;;16.40;99.90;;;;;;4879411;29;20203;-57
2022/07/18 05:17:53;;;;;;;7.23;2.97;;;16.50;99.90;;;;;;4879104;29;20286;-57
2022/07/18 05:20:25;;;;;;;3.67;3.47;;;16.60;99.90;;;;;;4877959;29;20226;-58
2022/07/18 05:22:54;;;;;;;4.03;3.63;;;16.70;99.90;;;;;;4877087;29;20322;-57
2022/07/18 05:25:25;;;;;;;8.93;4.07;;;16.80;99.90;;;;;;4878292;29;20556;-57
2022/07/18 05:27:53;;;;;;;5.23;3.50;;;17.00;99.90;;;;;;4878201;29;20228;-57
2022/07/18 05:30:24;;;;;;;5.97;3.13;;;17.10;99.90;;;;;;4878907;29;20687;-58
2022/07/18 05:32:53;;;;;;;3.77;3.27;;;17.30;99.90;;;;;;4879109;29;20207;-57
2022/07/18 05:35:23;;;;;;;3.77;3.23;;;17.50;99.90;;;;;;4878909;29;20195;-57
2022/07/18 05:37:52;;;;;;;3.67;3.43;;;17.70;99.90;;;;;;4878009;29;20242;-57
2022/07/18 05:40:20;;;;;;;4.23;3.40;;;18.00;99.90;;;;;;4877703;29;20257;-57
2022/07/18 05:42:50;;;;;;;5.43;3.50;;;18.20;99.90;;;;;;4879267;29;20620;-58
2022/07/18 05:45:23;;;;;;;7.93;3.50;;;18.40;99.90;;;;;;4882305;29;20195;-58
2022/07/18 05:47:52;;;;;;;3.93;3.53;;;18.60;99.90;;;;;;4882068;29;20524;-57
2022/07/18 05:50:21;;;;;;;3.63;3.33;;;19.00;99.90;;;;;;4869759;29;20219;-57
2022/07/18 05:52:50;;;;;;;5.13;3.37;;;19.20;99.90;;;;;;4870292;29;20230;-57
2022/07/18 05:55:19;;;;;;;4.93;3.30;;;19.40;99.90;;;;;;4881890;29;20286;-57
2022/07/18 05:57:49;;;;;;;4.50;3.30;;;19.60;99.90;;;;;;4881785;29;20206;-57
2022/07/18 06:00:19;;;;;;;5.20;3.50;;;19.90;99.90;;;;;;4881959;29;20211;-57
2022/07/18 06:02:50;;;;;;;5.43;2.87;;;20.10;99.90;;;;;;4882043;29;20253;-58
2022/07/18 06:05:19;;;;;;;6.13;2.90;;;20.30;99.90;;;;;;4881747;29;20207;-58
2022/07/18 06:07:51;;;;;;;5.60;3.13;;;20.50;99.90;;;;;;4881807;29;20659;-58
2022/07/18 06:10:20;;;;;;;7.50;3.20;;;20.80;99.90;;;;;;4880572;29;20682;-57
2022/07/18 06:12:49;;;;;;;9.63;3.90;;;21.10;99.90;;;;;;4880576;29;20213;-58
2022/07/18 06:15:39;;;;;;;13.97;4.00;;;21.40;99.90;;;;;;4881850;29;20285;-58
2022/07/18 06:18:09;;;;;;;7.87;3.63;;;21.50;99.90;;;;;;4881332;29;20217;-58
2022/07/18 06:20:37;;;;;;;13.83;3.70;;;21.70;99.90;;;;;;4880906;29;20226;-58
2022/07/18 06:23:06;;;;;;;11.40;3.23;;;22.00;99.90;;;;;;4879137;29;20266;-58
2022/07/18 06:25:34;;;;;;;8.47;3.30;;;22.00;99.90;;;;;;4880625;29;20785;-58
2022/07/18 06:28:02;;;;;;;11.20;3.37;;;22.30;99.90;;;;;;4881127;29;20203;-57
2022/07/18 06:30:31;;;;;;;7.53;3.43;;;22.60;99.90;;;;;;4881303;29;20282;-57
2022/07/18 06:32:59;;;;;;;7.83;3.40;;;22.90;99.90;;;;;;4867443;29;20231;-58
2022/07/18 06:35:29;;;;;;;7.37;3.20;;;23.10;99.90;;;;;;4879927;29;20627;-58
2022/07/18 06:37:57;;;;;;;7.13;3.43;;;23.50;99.90;;;;;;4881747;29;20307;-58
2022/07/18 06:40:26;;;;;;;11.17;3.63;;;23.70;99.90;;;;;;4879921;29;20234;-58
2022/07/18 06:42:54;;;;;;;7.60;3.10;;;23.90;99.90;;;;;;4881229;29;20829;-57
2022/07/18 06:45:23;;;;;;;7.97;3.50;;;24.20;99.90;;;;;;4880982;29;20197;-57
2022/07/18 06:47:51;;;;;;;11.53;2.90;;;24.30;99.90;;;;;;4879846;29;20713;-58
2022/07/18 06:50:19;;;;;;;7.87;3.07;;;24.60;99.90;;;;;;4879733;29;20206;-57
2022/07/18 06:52:49;;;;;;;4.57;2.80;;;24.90;99.90;;;;;;4881012;29;20231;-57
2022/07/18 06:55:18;;;;;;;4.20;2.80;;;24.90;99.90;;;;;;4880255;29;20288;-57
2022/07/18 06:57:46;;;;;;;3.20;2.63;;;25.00;99.90;;;;;;4880977;29;20200;-58
2022/07/18 07:00:15;;;;;;;6.97;3.27;;;25.00;99.90;;;;;;4880365;29;20302;-57
2022/07/18 07:02:46;;;;;;;4.70;2.73;;;24.90;99.90;;;;;;4879181;29;20258;-58
2022/07/18 07:05:15;;;;;;;2.90;2.67;;;24.80;99.90;;;;;;4880950;29;20675;-58
2022/07/18 07:07:45;;;;;;;3.97;2.87;;;24.80;99.90;;;;;;4880395;29;20203;-58
2022/07/18 07:10:18;;;;;;;4.07;2.87;;;24.80;99.90;;;;;;4876941;29;20278;-57
2022/07/18 07:12:48;;;;;;;4.83;2.93;;;24.90;99.90;;;;;;4869998;29;20298;-57
2022/07/18 07:15:20;;;;;;;4.87;2.80;;;25.10;99.90;;;;;;4881378;29;20286;-58
2022/07/18 07:17:48;;;;;;;3.13;2.43;;;25.10;99.90;;;;;;4874330;29;20285;-57
2022/07/18 07:20:20;;;;;;;4.33;2.70;;;25.10;99.90;;;;;;4877233;29;20216;-57
2022/07/18 07:22:50;;;;;;;8.23;2.40;;;25.60;99.90;;;;;;4876632;29;20238;-58
2022/07/18 07:25:21;;;;;;;3.83;2.60;;;26.20;99.90;;;;;;4880257;29;20241;-58
2022/07/18 07:27:50;;;;;;;3.92;2.40;;;26.60;99.90;;;;;;4879960;29;20243;-58
2022/07/18 07:30:18;;;;;;;4.60;2.30;;;26.70;99.90;;;;;;4878453;29;20273;-58
2022/07/18 07:32:47;;;;;;;3.55;2.50;;;27.10;99.90;;;;;;4865915;29;20624;-58
2022/07/18 07:35:17;;;;;;;3.53;2.53;;;27.50;99.90;;;;;;4869777;29;20196;-58
2022/07/18 07:37:47;;;;;;;3.50;2.22;;;28.00;99.90;;;;;;4880211;29;20304;-58
2022/07/18 07:40:16;;;;;;;3.35;2.67;;;28.10;99.90;;;;;;4879714;29;20202;-59
2022/07/18 07:42:47;;;;;;;2.88;2.28;;;28.20;99.90;;;;;;4879834;29;20195;-58
2022/07/18 07:45:16;;;;;;;3.15;2.40;;;28.60;99.90;;;;;;4879510;29;20278;-58
2022/07/18 07:47:44;;;;;;;2.90;2.05;;;28.90;99.90;;;;;;4878233;29;20285;-61
2022/07/18 07:50:14;;;;;;;2.58;2.35;;;29.30;99.90;;;;;;4879200;29;20286;-56
2022/07/18 07:52:42;;;;;;;2.65;2.00;;;29.20;99.90;;;;;;4862614;29;20199;-55
2022/07/18 07:55:10;;;;;;;4.00;2.20;;;29.40;99.90;;;;;;4878133;29;20720;-56
2022/07/18 07:57:39;;;;;;;5.38;2.35;;;29.80;99.90;;;;;;4879523;29;20213;-56
2022/07/18 08:00:10;;;;;;;8.43;2.30;;;30.10;99.90;;;;;;4879309;29;20711;-56
2022/07/18 08:02:50;;;;;;;4.05;2.45;;;29.90;99.90;;;;;;4879716;29;20218;-56
2022/07/18 08:05:27;;;;;;;3.10;1.83;;;30.10;99.90;;;;;;4879153;29;20199;-56
2022/07/18 08:07:55;;;;;;;2.85;1.95;;;30.30;99.90;;;;;;4879114;29;20245;-57
2022/07/18 08:10:24;;;;;;;3.78;2.08;;;31.00;99.90;;;;;;4877925;29;20248;-56
2022/07/18 08:12:53;;;;;;;3.08;1.90;;;31.40;99.90;;;;;;4879262;29;20664;-57
2022/07/18 08:15:23;;;;;;;2.60;2.00;;;31.40;99.90;;;;;;4878123;29;20264;-56
2022/07/18 08:17:52;;;;;;;2.47;1.90;;;31.20;99.90;;;;;;4879625;29;20738;-56
2022/07/18 08:20:20;;;;;;;2.95;2.20;;;31.40;99.90;;;;;;4878343;29;20205;-57
2022/07/18 08:22:59;;;;;;;3.08;1.95;;;31.40;99.90;;;;;;4878356;29;20288;-56
2022/07/18 08:25:29;;;;;;;4.10;1.73;;;31.70;99.90;;;;;;4877196;29;20210;-57
2022/07/18 08:27:58;;;;;;;2.85;1.95;;;32.10;99.90;;;;;;4878268;29;20290;-56
2022/07/18 08:30:30;;;;;;;6.63;1.90;;;32.40;99.90;;;;;;4878481;29;20302;-57
2022/07/18 08:33:00;;;;;;;2.70;2.00;;;32.70;99.90;;;;;;4879268;29;20203;-60
2022/07/18 08:35:29;;;;;;;3.17;1.85;;;32.60;99.20;;;;;;4878251;29;20954;-61
2022/07/18 08:37:57;;;;;;;3.30;1.90;;;32.60;98.40;;;;;;4878643;29;20690;-62
2022/07/18 08:40:27;;;;;;;2.78;1.65;;;32.70;99.10;;;;;;4878739;29;20213;-59
2022/07/18 08:42:57;;;;;;;1.70;1.60;;;33.40;98.70;;;;;;4878899;29;20258;-57
2022/07/18 08:45:47;;;;;;;2.10;1.85;;;33.80;96.90;;;;;;4878990;29;20207;-57
2022/07/18 08:48:16;;;;;;;3.80;2.00;;;33.80;97.60;;;;;;4879354;29;20260;-57
2022/07/18 08:50:46;;;;;;;4.47;1.70;;;34.30;96.80;;;;;;4878806;29;20285;-57
2022/07/18 08:53:16;;;;;;;2.47;1.80;;;34.70;96.60;;;;;;4886105;29;20210;-57
2022/07/18 08:55:44;;;;;;;2.03;1.80;;;35.30;95.50;;;;;;4881694;29;20286;-57
2022/07/18 08:58:14;;;;;;;2.50;2.20;;;35.30;95.60;;;;;;4878804;29;20254;-56
2022/07/18 09:01:04;;;;;;;2.25;1.95;;;35.30;94.60;;;;;;4878788;29;20211;-57
2022/07/18 09:03:32;;;;;;;2.45;1.88;;;35.90;94.80;;;;;;4877618;29;20718;-57
2022/07/18 09:06:06;;;;;;;3.22;1.60;;;35.60;93.20;;;;;;4878913;29;20227;-57
2022/07/18 09:08:35;;;;;;;3.10;1.77;;;35.70;93.40;;;;;;4879113;29;20194;-57
2022/07/18 09:11:05;;;;;;;4.13;1.80;;;35.40;92.70;;;;;;4878794;29;20226;-57
2022/07/18 09:13:38;;;;;;;4.68;1.75;;;35.50;93.30;;;;;;4879068;29;20202;-56
2022/07/18 09:16:10;;;;;;;2.28;1.90;;;35.30;93.70;;;;;;4878793;29;20205;-56
2022/07/18 09:18:41;;;;;;;2.22;2.00;;;35.30;92.10;;;;;;4880407;29;20206;-57
2022/07/18 09:21:11;;;;;;;3.25;2.00;;;35.50;93.20;;;;;;4882109;29;20668;-56
2022/07/18 09:23:42;;;;;;;7.93;1.90;;;35.90;92.10;;;;;;4881870;29;20317;-56
2022/07/18 09:26:11;;;;;;;6.03;2.08;;;36.20;91.90;;;;;;4882116;29;20290;-56
2022/07/18 09:28:48;;;;;;;5.55;1.73;;;36.40;91.90;;;;;;4882188;29;20278;-57
2022/07/18 09:31:38;;;;;;;2.85;1.90;;;36.80;90.90;;;;;;4882010;29;20227;-56
2022/07/18 09:34:07;;;;;;;3.05;1.83;;;36.70;91.00;;;;;;4881988;29;20238;-57
2022/07/18 09:36:54;;;;;;;2.67;1.60;;;37.00;91.80;;;;;;4880667;29;20203;-57
2022/07/18 09:39:22;;;;;;;4.35;1.65;;;37.20;90.20;;;;;;4881851;29;20555;-56
2022/07/18 09:41:50;;;;;;;4.60;1.75;;;36.60;89.80;;;;;;4881710;29;20201;-57
2022/07/18 09:44:21;;;;;;;1.80;1.70;;;36.50;91.20;;;;;;4881998;29;20207;-57
2022/07/18 09:47:04;;;;;;;5.80;1.70;;;36.90;88.60;;;;;;4881792;29;20696;-57
2022/07/18 09:49:34;;;;;;;5.25;1.88;;;37.00;88.50;;;;;;4882052;29;20676;-56
2022/07/18 09:52:08;;;;;;;1.90;1.73;;;37.20;87.20;;;;;;4881508;29;20271;-57
2022/07/18 09:54:38;;;;;;;4.55;1.42;;;37.30;85.90;;;;;;4863423;29;20282;-57
2022/07/18 09:57:09;;;;;;;1.75;1.50;;;37.20;86.70;;;;;;4876920;29;20218;-57
2022/07/18 09:59:38;;;;;;;4.68;1.80;;;37.30;88.00;;;;;;4880348;29;20234;-56
2022/07/18 10:02:17;;;;;;;1.75;1.65;;;37.70;86.70;;;;;;4880741;29;20210;-57
2022/07/18 10:04:46;;;;;;;5.68;1.55;;;37.50;84.40;;;;;;4880619;29;20206;-56
2022/07/18 10:07:16;;;;;;;2.58;1.55;;;37.30;81.40;;;;;;4881601;29;20223;-56
2022/07/18 10:09:45;;;;;;;2.42;1.50;;;37.20;85.00;;;;;;4881404;29;20230;-56
2022/07/18 10:12:15;;;;;;;2.63;1.60;;;37.60;81.50;;;;;;4881351;29;20237;-57
2022/07/18 10:14:44;;;;;;;5.30;1.50;;;37.40;84.10;;;;;;4879877;29;20202;-57
2022/07/18 10:17:13;;;;;;;4.40;1.30;;;37.50;83.40;;;;;;4881282;29;20255;-57
2022/07/18 10:19:43;;;;;;;2.10;1.40;;;37.50;80.50;;;;;;4880073;29;20246;-57
2022/07/18 10:22:11;;;;;;;1.77;1.52;;;37.60;83.20;;;;;;4879798;29;20681;-57
2022/07/18 10:24:41;;;;;;;1.90;1.35;;;37.70;81.70;;;;;;4881365;29;20202;-57
2022/07/18 10:27:14;;;;;;;1.65;1.40;;;37.70;83.90;;;;;;4881284;29;20635;-57
2022/07/18 10:30:10;;;;;;;1.58;1.45;;;38.10;83.30;;;;;;4878518;29;20285;-57
2022/07/18 10:32:39;;;;;;;5.22;1.92;;;38.20;81.80;;;;;;4881064;29;20251;-57
2022/07/18 10:35:11;;;;;;;1.52;1.40;;;38.60;80.70;;;;;;4881085;29;20281;-56
2022/07/18 10:37:40;;;;;;;1.60;1.50;;;38.20;81.60;;;;;;4866879;29;20200;-57
2022/07/18 10:40:26;;;;;;;3.15;1.38;;;38.10;81.00;;;;;;4870547;29;20226;-56
2022/07/18 10:43:34;;;;;;;1.58;1.48;;;38.00;79.40;;;;;;4876378;29;20200;-57
2022/07/18 10:46:04;;;;;;;1.38;1.38;;;38.00;78.10;;;;;;4874737;29;20231;-56
2022/07/18 10:48:55;;;;;;;1.70;1.60;;;38.30;80.50;;;;;;4871535;29;20199;-57
2022/07/18 10:51:36;;;;;;;1.95;1.58;;;38.60;78.60;;;;;;4875727;29;20250;-57
2022/07/18 10:54:12;;;;;;;1.42;1.30;;;38.30;77.60;;;;;;4863931;29;20624;-57
2022/07/18 10:57:17;;;;;;;3.35;1.60;;;38.10;77.80;;;;;;4880653;29;20274;-56
2022/07/18 11:00:06;;;;;;;2.83;1.60;;;38.10;78.50;;;;;;4860789;29;20203;-57
2022/07/18 11:02:36;;;;;;;4.47;1.60;;;38.10;77.40;;;;;;4860837;29;20235;-56
2022/07/18 11:05:33;;;;;;;1.60;1.50;;;38.20;78.20;;;;;;4874757;29;20299;-58
2022/07/18 11:08:20;;;;;;;3.03;1.48;;;37.90;76.90;;;;;;4880655;29;20273;-57
2022/07/18 11:11:12;;;;;;;1.63;1.50;;;37.50;75.50;;;;;;4861773;29;20207;-57
2022/07/18 11:13:48;;;;;;;4.57;1.40;;;37.50;76.10;;;;;;4865778;29;20211;-57
2022/07/18 11:16:22;;;;;;;2.50;1.25;;;37.70;76.00;;;;;;4878987;29;20695;-57
2022/07/18 11:19:17;;;;;;;8.55;1.50;;;37.70;75.20;;;;;;4866874;29;20206;-57
2022/07/18 11:21:47;;;;;;;1.70;1.60;;;37.70;77.60;;;;;;4880603;29;20652;-57
2022/07/18 11:24:21;;;;;;;1.50;1.40;;;37.70;77.00;;;;;;4843364;29;20646;-57
2022/07/18 11:26:50;;;;;;;6.10;1.60;;;37.90;75.30;;;;;;4841743;29;20638;-57
2022/07/18 11:29:20;;;;;;;2.33;1.40;;;37.90;76.80;;;;;;4842985;29;20205;-57
2022/07/18 11:31:50;;;;;;;1.20;1.10;;;37.90;76.00;;;;;;4843020;29;20220;-57
2022/07/18 11:34:20;;;;;;;1.40;1.30;;;37.70;75.60;;;;;;4842748;29;20276;-57
2022/07/18 11:37:04;;;;;;;4.00;1.60;;;37.50;75.10;;;;;;4841650;29;20556;-57
2022/07/18 11:39:35;;;;;;;2.30;1.38;;;37.40;75.90;;;;;;4842889;29;20223;-56
2022/07/18 11:42:04;;;;;;;2.83;1.50;;;37.20;76.30;;;;;;4842692;29;20193;-56
2022/07/18 11:44:33;;;;;;;1.70;1.60;;;37.10;73.80;;;;;;4843186;29;20284;-56
2022/07/18 11:47:03;;;;;;;1.67;1.58;;;37.10;74.80;;;;;;4842804;29;20232;-56
2022/07/18 11:49:32;;;;;;;4.38;1.63;;;37.00;73.30;;;;;;4841478;29;20295;-56
2022/07/18 11:52:00;;;;;;;3.08;1.50;;;36.70;72.80;;;;;;4842557;29;20716;-56
2022/07/18 11:54:30;;;;;;;2.60;1.42;;;36.50;74.40;;;;;;4841746;29;20224;-56
2022/07/18 11:57:00;;;;;;;1.80;1.70;;;36.40;76.10;;;;;;4842634;29;20208;-56
2022/07/18 11:59:39;;;;;;;4.22;1.70;;;36.50;76.10;;;;;;4842853;29;20211;-56
2022/07/18 12:02:08;;;;;;;1.40;1.40;;;36.30;74.00;;;;;;4842578;29;20243;-56
2022/07/18 12:04:37;;;;;;;4.43;1.88;;;36.10;75.60;;;;;;4842667;29;20199;-58
2022/07/18 12:07:18;;;;;;;1.90;1.50;;;36.10;77.20;;;;;;4842983;29;20204;-59
2022/07/18 12:09:48;;;;;;;4.30;1.70;;;36.20;76.20;;;;;;4842501;29;20211;-58
2022/07/18 12:12:19;;;;;;;5.35;1.50;;;36.00;72.80;;;;;;4842706;29;20617;-58
2022/07/18 12:14:58;;;;;;;1.70;1.60;;;35.90;73.40;;;;;;4841180;29;20668;-58
2022/07/18 12:17:26;;;;;;;2.45;1.40;;;35.80;73.70;;;;;;4842638;29;20198;-58
2022/07/18 12:20:10;;;;;;;4.45;1.70;;;35.70;75.40;;;;;;4842363;29;20730;-59
2022/07/18 12:23:11;;;;;;;1.67;1.50;;;35.70;74.40;;;;;;4854914;29;20226;-58
2022/07/18 12:25:40;;;;;;;2.50;1.73;;;35.40;72.70;;;;;;4860795;29;20201;-58
2022/07/18 12:28:18;;;;;;;1.75;1.65;;;35.50;75.80;;;;;;4875550;29;20738;-58
2022/07/18 12:30:47;;;;;;;2.50;1.65;;;35.50;75.40;;;;;;4879132;29;20307;-58
2022/07/18 12:33:15;;;;;;;4.15;1.60;;;35.40;73.20;;;;;;4879322;29;20314;-58
2022/07/18 12:35:44;;;;;;;1.67;1.58;;;35.40;75.10;;;;;;4879275;29;20195;-58
2022/07/18 12:38:14;;;;;;;2.00;1.70;;;35.40;76.50;;;;;;4878288;29;20223;-58
2022/07/18 12:40:46;;;;;;;2.50;1.50;;;35.20;74.00;;;;;;4878095;29;20203;-58
2022/07/18 12:43:17;;;;;;;2.00;1.80;;;35.10;74.80;;;;;;4879236;29;20691;-58
2022/07/18 12:45:46;;;;;;;6.47;1.73;;;35.20;73.30;;;;;;4879233;29;20588;-58
2022/07/18 12:48:15;;;;;;;1.77;1.55;;;35.30;73.60;;;;;;4879063;29;20720;-59
2022/07/18 12:50:45;;;;;;;1.95;1.77;;;35.20;70.50;;;;;;4877955;29;20261;-59
2022/07/18 12:53:14;;;;;;;1.90;1.70;;;35.10;73.10;;;;;;4880250;29;20227;-58
2022/07/18 12:55:42;;;;;;;4.20;1.70;;;35.20;74.30;;;;;;4881825;29;20226;-57
2022/07/18 12:58:11;;;;;;;1.85;1.73;;;35.20;72.50;;;;;;4881689;29;20222;-58
2022/07/18 13:00:41;;;;;;;2.55;1.50;;;35.20;73.00;;;;;;4881855;29;20233;-58
2022/07/18 13:03:09;;;;;;;1.85;1.30;;;35.20;74.70;;;;;;4881572;29;20230;-58
2022/07/18 13:05:38;;;;;;;2.55;1.60;;;35.30;73.40;;;;;;4883060;29;20207;-58
2022/07/18 13:08:07;;;;;;;2.25;1.70;;;35.40;73.20;;;;;;4882901;29;20209;-58